Time;durP1;ratioP1;P1;durP2;ratioP2;P2;SDS_P1;SDS_P2;PMS_P1;PMS_P2;Temp;Humidity;BMP_temperature;BMP_pressure;BME280_temperature;BME280_humidity;BME280_pressure;Samples;Min_cycle;Max_cycle;Signal;HPM_P1;HPM_P2
2023/01/02 00:00:47;;;;;;;21.77;9.87;;;;;;;12.90;87.24;101110.72;4990222;28;20457;-70
2023/01/02 00:03:15;;;;;;;29.73;13.27;;;;;;;12.91;86.94;101106.88;4992181;28;20832;-70
2023/01/02 00:05:41;;;;;;;35.20;13.33;;;;;;;12.86;86.26;101096.91;4991184;28;20561;-69
2023/01/02 00:08:08;;;;;;;37.27;13.37;;;;;;;12.86;86.66;101096.13;4993571;28;20488;-69
2023/01/02 00:10:34;;;;;;;33.97;13.20;;;;;;;12.86;87.01;101082.53;4991523;28;20487;-70
2023/01/02 00:13:01;;;;;;;28.73;11.53;;;;;;;12.87;87.40;101084.94;4985085;28;20541;-69
2023/01/02 00:15:28;;;;;;;29.87;14.00;;;;;;;12.91;87.82;101081.63;4991982;28;21467;-69
2023/01/02 00:17:54;;;;;;;29.23;12.13;;;;;;;12.91;88.49;101076.16;4989362;28;20477;-74
2023/01/02 00:20:22;;;;;;;28.63;12.20;;;;;;;12.89;88.96;101052.03;4991839;28;20993;-69
2023/01/02 00:22:49;;;;;;;24.03;12.20;;;;;;;12.91;89.40;101062.56;4993007;28;20576;-69
2023/01/02 00:25:16;;;;;;;32.57;13.10;;;;;;;12.92;89.64;101069.63;4994177;28;20489;-70
2023/01/02 00:27:42;;;;;;;33.30;11.87;;;;;;;12.90;90.05;101061.78;4993055;28;20906;-69
2023/01/02 00:30:10;;;;;;;32.33;13.57;;;;;;;12.90;89.97;101060.97;4992280;28;20572;-69
2023/01/02 00:32:37;;;;;;;37.60;12.60;;;;;;;12.87;90.17;101052.31;4999787;28;20550;-71
2023/01/02 00:35:04;;;;;;;31.10;13.30;;;;;;;12.85;90.55;101046.38;4990773;28;20557;-70
2023/01/02 00:37:32;;;;;;;30.60;12.23;;;;;;;12.84;90.91;101055.66;4991173;28;20459;-69
2023/01/02 00:39:58;;;;;;;24.17;10.73;;;;;;;12.85;90.75;101056.47;4994034;28;20520;-70
2023/01/02 00:42:25;;;;;;;29.00;12.10;;;;;;;12.82;90.83;101060.56;4994155;28;20560;-69
2023/01/02 00:44:52;;;;;;;15.10;6.80;;;;;;;12.82;90.49;101063.28;4994576;28;20531;-70
2023/01/02 00:47:18;;;;;;;12.63;6.33;;;;;;;12.88;90.08;101064.81;4994511;28;20448;-70
2023/01/02 00:49:45;;;;;;;13.97;5.30;;;;;;;12.90;89.83;101050.91;4993840;28;20488;-70
2023/01/02 00:52:11;;;;;;;10.07;4.50;;;;;;;12.94;89.34;101051.09;4990917;28;20536;-70
2023/01/02 00:54:39;;;;;;;13.23;3.77;;;;;;;12.96;89.04;101048.88;4991952;28;20467;-70
2023/01/02 00:57:06;;;;;;;10.00;3.60;;;;;;;12.99;89.35;101051.78;4984410;28;20465;-70
2023/01/02 00:59:32;;;;;;;9.77;3.77;;;;;;;13.01;89.07;101046.03;4987716;28;20571;-70
2023/01/02 01:01:59;;;;;;;7.40;2.37;;;;;;;12.99;88.48;101048.25;4991601;28;20577;-69
2023/01/02 01:04:26;;;;;;;8.47;2.97;;;;;;;12.95;88.74;101047.28;4992135;28;20467;-69
2023/01/02 01:06:52;;;;;;;7.00;2.60;;;;;;;12.89;89.21;101049.31;4994036;28;20532;-69
2023/01/02 01:09:19;;;;;;;16.30;2.90;;;;;;;12.77;91.67;101051.72;4993962;28;20484;-69
2023/01/02 01:11:47;;;;;;;7.77;2.83;;;;;;;12.75;91.92;101049.31;4993862;28;20528;-69
2023/01/02 01:14:13;;;;;;;8.20;2.87;;;;;;;12.74;91.82;101044.97;4992291;28;20488;-69
2023/01/02 01:16:40;;;;;;;7.43;2.40;;;;;;;12.73;92.60;101026.25;4992521;28;20467;-69
2023/01/02 01:19:07;;;;;;;7.63;2.50;;;;;;;12.70;93.23;101033.09;4992339;28;20496;-69
2023/01/02 01:21:34;;;;;;;6.90;2.80;;;;;;;12.68;93.86;101021.75;4990575;28;20857;-69
2023/01/02 01:24:00;;;;;;;7.57;2.50;;;;;;;12.67;94.22;101016.63;4993716;28;20536;-69
2023/01/02 01:26:27;;;;;;;5.63;2.10;;;;;;;12.59;95.31;101012.69;4990791;28;20464;-70
2023/01/02 01:28:56;;;;;;;7.73;1.80;;;;;;;12.56;95.51;101007.84;4983708;28;20998;-69
2023/01/02 01:31:23;;;;;;;5.77;1.80;;;;;;;12.60;95.41;101008.84;4992349;28;20551;-70
2023/01/02 01:33:50;;;;;;;11.60;2.57;;;;;;;12.58;95.73;101003.75;4990786;28;20548;-70
2023/01/02 01:36:19;;;;;;;8.00;2.53;;;;;;;12.57;95.59;100999.41;4992261;28;21005;-69
2023/01/02 01:38:46;;;;;;;8.43;2.47;;;;;;;12.64;95.13;101004.44;4991501;28;20485;-69
2023/01/02 01:41:15;;;;;;;7.97;2.43;;;;;;;12.67;94.88;100995.69;4989756;28;20536;-69
2023/01/02 01:43:44;;;;;;;10.13;2.60;;;;;;;12.66;94.91;100991.34;4992874;28;20471;-69
2023/01/02 01:46:20;;;;;;;6.30;2.00;;;;;;;12.71;94.61;100993.97;4992078;28;20970;-69
2023/01/02 01:48:52;;;;;;;7.53;1.83;;;;;;;12.73;94.16;100989.00;4992556;28;20937;-69
2023/01/02 01:51:20;;;;;;;6.30;2.10;;;;;;;12.73;93.60;100989.00;4990337;28;20535;-69
2023/01/02 01:53:49;;;;;;;6.40;2.07;;;;;;;12.76;93.27;100980.25;4990177;28;20551;-69
2023/01/02 01:56:16;;;;;;;8.87;2.57;;;;;;;12.78;92.99;100980.72;4982275;28;20456;-69
2023/01/02 01:58:45;;;;;;;10.03;2.37;;;;;;;12.80;92.85;100980.44;4992634;28;20485;-69
2023/01/02 02:01:15;;;;;;;8.40;2.20;;;;;;;12.87;92.42;100973.47;4990338;28;20469;-69
2023/01/02 02:03:45;;;;;;;7.73;2.37;;;;;;;12.90;92.37;100979.41;4991154;28;21038;-69
2023/01/02 02:06:12;;;;;;;6.73;1.83;;;;;;;12.94;92.09;100974.97;4991683;28;20886;-69
2023/01/02 02:08:45;;;;;;;15.23;2.63;;;;;;;12.92;92.14;100969.00;4992539;28;20576;-70
2023/01/02 02:11:13;;;;;;;8.90;2.03;;;;;;;12.92;91.86;100956.22;4990597;28;20458;-69
2023/01/02 02:13:40;;;;;;;6.10;2.17;;;;;;;12.96;91.69;100950.97;4991158;28;20459;-70
2023/01/02 02:16:21;;;;;;;6.83;2.50;;;;;;;12.93;90.92;100946.97;4992529;28;20459;-70
2023/01/02 02:19:24;;;;;;;6.77;1.63;;;;;;;12.93;89.99;100946.97;4992045;28;20871;-69
2023/01/02 02:22:11;;;;;;;5.60;2.23;;;;;;;12.92;89.27;100933.66;4990288;28;21016;-70
2023/01/02 02:25:07;;;;;;;10.70;2.53;;;;;;;12.91;88.56;100926.63;4991836;28;20467;-69
2023/01/02 02:27:56;;;;;;;11.70;2.43;;;;;;;12.87;88.41;100919.09;4983819;28;20464;-69
2023/01/02 02:30:27;;;;;;;7.63;2.00;;;;;;;12.84;88.68;100910.75;4988153;28;20596;-70
2023/01/02 02:33:17;;;;;;;11.50;2.20;;;;;;;12.80;88.38;100894.25;4987796;28;20491;-70
2023/01/02 02:35:57;;;;;;;10.40;3.00;;;;;;;12.83;88.29;100904.50;4985872;28;20885;-70
2023/01/02 02:38:36;;;;;;;9.30;2.90;;;;;;;12.79;88.75;100903.53;4993092;28;20462;-69
2023/01/02 02:41:15;;;;;;;8.70;2.30;;;;;;;12.84;88.92;100899.88;4991774;28;20547;-69
2023/01/02 02:43:55;;;;;;;7.97;2.10;;;;;;;12.88;88.60;100901.69;4995665;28;20473;-69
2023/01/02 02:46:28;;;;;;;8.10;2.53;;;;;;;12.99;87.62;100915.03;4995319;28;21001;-70
2023/01/02 02:49:04;;;;;;;14.70;2.50;;;;;;;13.14;86.03;100904.56;4995791;28;20495;-70
2023/01/02 02:51:36;;;;;;;7.10;2.50;;;;;;;13.20;86.20;100902.53;4994720;28;20993;-69
2023/01/02 02:54:08;;;;;;;9.53;3.00;;;;;;;13.26;85.18;100895.88;4994062;28;21005;-70
2023/01/02 02:56:36;;;;;;;6.93;2.33;;;;;;;13.31;85.42;100894.94;4994488;28;20471;-70
2023/01/02 02:59:04;;;;;;;7.03;1.73;;;;;;;13.29;85.34;100889.81;4992460;28;20487;-69
2023/01/02 03:01:31;;;;;;;12.43;2.73;;;;;;;13.32;85.36;100893.81;4986444;28;20475;-70
2023/01/02 03:03:58;;;;;;;6.03;2.20;;;;;;;13.36;85.02;100881.19;4995533;28;20489;-70
2023/01/02 03:06:39;;;;;;;8.30;2.67;;;;;;;13.34;85.08;100876.06;4993800;28;20547;-69
2023/01/02 03:09:17;;;;;;;9.50;2.43;;;;;;;13.41;84.24;100863.94;4994660;28;20559;-68
2023/01/02 03:11:54;;;;;;;6.13;2.30;;;;;;;13.47;83.37;100862.69;4990331;28;20485;-68
2023/01/02 03:14:27;;;;;;;9.80;1.73;;;;;;;13.55;82.43;100868.19;4995323;28;20479;-68
2023/01/02 03:17:01;;;;;;;6.07;2.23;;;;;;;13.55;83.07;100865.44;4995405;28;20459;-67
2023/01/02 03:19:35;;;;;;;7.03;2.50;;;;;;;13.58;82.55;100862.09;4995733;28;20468;-70
2023/01/02 03:22:06;;;;;;;12.63;2.70;;;;;;;13.53;83.04;100866.88;4993637;28;20471;-70
2023/01/02 03:24:37;;;;;;;6.00;2.00;;;;;;;13.58;82.31;100872.97;4991019;28;20463;-68
2023/01/02 03:27:09;;;;;;;9.30;2.40;;;;;;;13.61;81.92;100863.38;4992782;28;20560;-68
2023/01/02 03:29:40;;;;;;;8.87;2.33;;;;;;;13.62;80.96;100870.44;4991477;28;20844;-67
2023/01/02 03:32:13;;;;;;;9.50;2.43;;;;;;;13.53;81.26;100870.41;4995206;28;20461;-68
2023/01/02 03:34:43;;;;;;;6.10;2.33;;;;;;;13.58;80.87;100867.53;4993649;28;20539;-68
2023/01/02 03:37:14;;;;;;;8.63;2.33;;;;;;;13.59;80.67;100861.00;4993681;28;20460;-67
2023/01/02 03:39:45;;;;;;;8.40;2.83;;;;;;;13.57;81.30;100870.56;4983794;28;20519;-67
2023/01/02 03:42:16;;;;;;;9.30;2.60;;;;;;;13.56;81.37;100874.41;4994446;28;20473;-69
2023/01/02 03:44:49;;;;;;;6.00;1.97;;;;;;;13.60;80.95;100859.06;4991991;28;20497;-69
2023/01/02 03:47:26;;;;;;;7.50;1.97;;;;;;;13.63;80.24;100866.59;4990932;28;20465;-69
2023/01/02 03:49:56;;;;;;;5.57;1.63;;;;;;;13.65;80.14;100858.13;4993112;28;20584;-67
2023/01/02 03:52:23;;;;;;;6.03;2.00;;;;;;;13.66;79.94;100860.53;4994172;28;20457;-69
2023/01/02 03:54:50;;;;;;;6.43;2.27;;;;;;;13.68;80.42;100852.84;4991653;28;20950;-70
2023/01/02 03:57:28;;;;;;;5.77;2.03;;;;;;;13.68;80.61;100858.31;4990758;28;20471;-70
2023/01/02 03:59:59;;;;;;;7.00;2.30;;;;;;;13.62;81.33;100854.09;4988962;28;20851;-70
2023/01/02 04:02:36;;;;;;;9.10;2.40;;;;;;;13.57;81.76;100846.06;4991540;28;20488;-70
2023/01/02 04:05:10;;;;;;;7.03;2.63;;;;;;;13.60;81.04;100850.91;4991184;28;20455;-70
2023/01/02 04:07:44;;;;;;;6.00;2.20;;;;;;;13.61;80.99;100855.22;4986728;28;20504;-69
2023/01/02 04:10:14;;;;;;;8.30;2.70;;;;;;;13.56;81.62;100850.72;4993828;28;21030;-70
2023/01/02 04:12:43;;;;;;;9.37;3.00;;;;;;;13.58;80.95;100848.47;4994273;28;20467;-69
2023/01/02 04:15:13;;;;;;;15.50;3.40;;;;;;;13.61;80.01;100850.56;4992545;28;20473;-70
2023/01/02 04:17:46;;;;;;;7.77;2.40;;;;;;;13.67;80.15;100844.97;4993564;28;20553;-69
2023/01/02 04:20:17;;;;;;;7.93;2.83;;;;;;;13.68;79.50;100846.59;4993617;28;20495;-69
2023/01/02 04:22:50;;;;;;;5.80;1.93;;;;;;;13.76;79.04;100843.88;4990177;28;20481;-70
2023/01/02 04:25:18;;;;;;;7.87;2.53;;;;;;;13.82;78.81;100848.09;4993177;28;20456;-69
2023/01/02 04:27:51;;;;;;;5.73;1.97;;;;;;;13.83;79.00;100838.78;4992970;28;20469;-70
2023/01/02 04:30:18;;;;;;;7.30;2.43;;;;;;;13.79;79.37;100846.00;4993646;28;20588;-70
2023/01/02 04:32:48;;;;;;;8.83;2.40;;;;;;;13.81;79.50;100845.66;4989399;28;21058;-69
2023/01/02 04:35:18;;;;;;;8.53;3.00;;;;;;;13.76;79.28;100838.44;4991846;28;20955;-70
2023/01/02 04:37:45;;;;;;;8.57;2.10;;;;;;;13.70;78.95;100828.84;4992372;28;20492;-70
2023/01/02 04:40:16;;;;;;;5.60;2.10;;;;;;;13.78;78.92;100840.88;4993129;28;20488;-69
2023/01/02 04:42:42;;;;;;;6.50;1.93;;;;;;;13.78;78.59;100828.06;4993115;28;20859;-70
2023/01/02 04:45:10;;;;;;;7.63;2.30;;;;;;;13.76;79.14;100832.19;4981349;28;20560;-69
2023/01/02 04:47:36;;;;;;;8.93;2.90;;;;;;;13.80;78.79;100827.72;4993160;28;20471;-70
2023/01/02 04:50:06;;;;;;;5.60;1.97;;;;;;;13.86;78.15;100826.47;4992557;28;20488;-69
2023/01/02 04:52:32;;;;;;;6.70;2.30;;;;;;;13.79;78.25;100837.03;4986803;28;20541;-69
2023/01/02 04:54:59;;;;;;;8.20;2.90;;;;;;;13.81;77.79;100832.06;4991885;28;20499;-69
2023/01/02 04:57:26;;;;;;;7.00;2.20;;;;;;;13.86;77.26;100827.28;4993170;28;20536;-69
2023/01/02 04:59:52;;;;;;;6.30;2.33;;;;;;;13.94;76.75;100827.59;4991976;28;20492;-70
2023/01/02 05:02:19;;;;;;;9.30;2.37;;;;;;;13.94;77.42;100827.59;4993066;28;20982;-69
2023/01/02 05:04:45;;;;;;;6.87;2.30;;;;;;;14.02;76.60;100832.25;4993270;28;20449;-69
2023/01/02 05:07:13;;;;;;;6.73;2.50;;;;;;;14.06;76.83;100825.84;4991574;28;20826;-69
2023/01/02 05:09:40;;;;;;;9.20;3.07;;;;;;;14.04;77.40;100832.75;4990201;28;20492;-70
2023/01/02 05:12:06;;;;;;;17.13;2.70;;;;;;;14.03;76.53;100828.41;4992483;28;21022;-69
2023/01/02 05:14:33;;;;;;;6.83;2.40;;;;;;;14.11;76.23;100833.06;4991711;28;20461;-70
2023/01/02 05:17:00;;;;;;;6.63;2.40;;;;;;;14.18;75.51;100838.88;4981382;28;20569;-69
2023/01/02 05:19:26;;;;;;;10.20;1.97;;;;;;;14.19;75.55;100850.56;4986018;28;20490;-69
2023/01/02 05:24:38;;;;;;;7.33;2.20;;;;;;;14.34;74.26;100833.72;4991731;28;20555;-70
2023/01/02 05:27:05;;;;;;;6.30;2.10;;;;;;;14.42;73.36;100827.47;4992136;28;20496;-69
2023/01/02 05:29:31;;;;;;;7.00;2.10;;;;;;;14.46;73.32;100825.72;4993294;28;20465;-70
2023/01/02 05:31:58;;;;;;;5.80;2.20;;;;;;;14.44;74.10;100827.19;4988738;28;20997;-69
2023/01/02 05:34:24;;;;;;;6.43;2.10;;;;;;;14.48;72.68;100828.16;4992956;28;20460;-69
2023/01/02 05:36:51;;;;;;;9.20;2.47;;;;;;;14.51;73.05;100819.34;4990907;28;20467;-70
2023/01/02 05:39:17;;;;;;;7.73;2.23;;;;;;;14.53;71.94;100826.09;4993523;28;20493;-70
2023/01/02 05:41:45;;;;;;;5.87;1.93;;;;;;;14.58;71.85;100822.41;4991803;28;20551;-69
2023/01/02 05:44:12;;;;;;;8.00;2.30;;;;;;;14.54;72.22;100821.44;4991820;28;20495;-69
2023/01/02 05:46:39;;;;;;;7.43;2.40;;;;;;;14.60;71.60;100817.41;4991015;28;20596;-70
2023/01/02 05:49:06;;;;;;;10.63;2.20;;;;;;;14.59;72.55;100816.59;4993348;28;20575;-70
2023/01/02 05:51:33;;;;;;;5.00;1.40;;;;;;;14.60;71.39;100812.75;4990911;28;20552;-69
2023/01/02 05:54:00;;;;;;;7.60;1.40;;;;;;;14.65;71.05;100822.69;4993766;28;20460;-69
2023/01/02 05:56:28;;;;;;;5.93;2.00;;;;;;;14.66;71.00;100816.13;4994306;28;20465;-68
2023/01/02 05:58:56;;;;;;;6.50;2.40;;;;;;;14.65;70.94;100819.97;4973867;28;21029;-69
2023/01/02 06:01:25;;;;;;;6.43;2.13;;;;;;;14.67;70.67;100817.72;4980466;28;20445;-70
2023/01/02 06:03:53;;;;;;;6.20;1.90;;;;;;;14.67;70.64;100820.47;4993553;28;20492;-70
2023/01/02 06:06:22;;;;;;;6.10;2.10;;;;;;;14.69;70.33;100820.13;4991280;28;20547;-70
2023/01/02 06:08:49;;;;;;;7.20;2.30;;;;;;;14.69;70.98;100820.13;4992455;28;20568;-70
2023/01/02 06:11:16;;;;;;;5.40;1.60;;;;;;;14.70;70.45;100821.72;4991950;28;20568;-70
2023/01/02 06:13:42;;;;;;;7.30;1.70;;;;;;;14.68;70.53;100822.06;4995587;28;20465;-70
2023/01/02 06:16:11;;;;;;;5.60;1.50;;;;;;;14.67;70.62;100828.63;4995363;28;20467;-70
2023/01/02 06:18:39;;;;;;;6.30;2.00;;;;;;;14.64;70.62;100821.88;4994914;28;20496;-70
2023/01/02 06:21:07;;;;;;;6.10;1.87;;;;;;;14.70;70.02;100813.53;4995108;28;22281;-69
2023/01/02 06:23:34;;;;;;;6.50;1.90;;;;;;;14.68;70.49;100808.41;4995039;28;20488;-70
2023/01/02 06:26:03;;;;;;;6.27;2.00;;;;;;;14.64;70.41;100821.88;4995386;28;20467;-69
2023/01/02 06:28:30;;;;;;;7.13;2.13;;;;;;;14.68;70.32;100811.16;4994239;28;20474;-70
2023/01/02 06:30:59;;;;;;;5.97;2.07;;;;;;;14.66;70.80;100802.50;4993732;28;20909;-69
2023/01/02 06:33:28;;;;;;;7.73;1.97;;;;;;;14.62;71.93;100815.97;4995380;28;20464;-69
2023/01/02 06:35:57;;;;;;;9.57;2.50;;;;;;;14.61;70.83;100813.59;4995636;28;20889;-70
2023/01/02 06:38:24;;;;;;;5.23;2.00;;;;;;;14.62;70.95;100809.72;4995862;28;20465;-70
2023/01/02 06:40:54;;;;;;;5.00;1.80;;;;;;;14.63;70.71;100817.56;4995111;28;20448;-69
2023/01/02 06:43:21;;;;;;;7.43;2.67;;;;;;;14.63;70.57;100823.03;4995054;28;20489;-69
2023/01/02 06:45:48;;;;;;;5.10;1.77;;;;;;;14.62;70.76;100826.09;4995235;28;20476;-69
2023/01/02 06:48:15;;;;;;;14.03;2.00;;;;;;;14.62;70.03;100826.88;4994630;28;20902;-69
2023/01/02 06:50:43;;;;;;;9.40;1.90;;;;;;;14.70;69.91;100829.91;4994363;28;20598;-69
2023/01/02 06:53:09;;;;;;;5.63;2.20;;;;;;;14.71;70.52;100831.53;4996533;28;20649;-69
2023/01/02 06:55:36;;;;;;;6.33;1.77;;;;;;;14.68;70.24;100823.97;4993607;28;21025;-70
2023/01/02 06:58:02;;;;;;;5.33;1.93;;;;;;;14.67;71.09;100825.91;4994801;28;20544;-70
2023/01/02 07:00:29;;;;;;;5.60;1.73;;;;;;;14.61;71.69;100824.47;4994068;28;20931;-69
2023/01/02 07:02:56;;;;;;;9.13;2.13;;;;;;;14.55;71.81;100832.00;4995666;28;20474;-70
2023/01/02 07:05:22;;;;;;;5.73;1.83;;;;;;;14.53;71.42;100839.72;4994850;28;20465;-69
2023/01/02 07:07:50;;;;;;;4.83;1.53;;;;;;;14.49;71.23;100840.69;4992934;28;20576;-69
2023/01/02 07:10:17;;;;;;;6.80;2.00;;;;;;;14.56;70.73;100832.81;4988913;28;20564;-70
2023/01/02 07:12:43;;;;;;;5.40;1.70;;;;;;;14.60;70.07;100844.66;4992264;28;20467;-69
2023/01/02 07:15:10;;;;;;;4.87;1.80;;;;;;;14.62;70.21;100843.25;4994634;28;20453;-70
2023/01/02 07:17:37;;;;;;;6.30;1.70;;;;;;;14.67;69.90;100846.94;4994682;28;20475;-70
2023/01/02 07:20:04;;;;;;;8.77;1.80;;;;;;;14.73;69.16;100859.25;4993283;28;20477;-70
2023/01/02 07:22:31;;;;;;;7.13;1.87;;;;;;;14.84;67.97;100858.63;4994257;28;20503;-69
2023/01/02 07:25:00;;;;;;;5.37;1.77;;;;;;;14.87;68.01;100855.25;4995055;28;20495;-70
2023/01/02 07:27:28;;;;;;;5.70;1.80;;;;;;;14.91;67.53;100851.84;4994811;28;20468;-70
2023/01/02 07:29:55;;;;;;;9.67;1.37;;;;;;;14.91;67.86;100849.94;4993642;28;20560;-69
2023/01/02 07:32:22;;;;;;;4.70;1.17;;;;;;;14.96;67.99;100852.47;4994499;28;21030;-69
2023/01/02 07:34:48;;;;;;;4.70;1.47;;;;;;;14.96;67.87;100857.94;4994212;28;20457;-69
2023/01/02 07:37:15;;;;;;;6.53;1.73;;;;;;;14.94;68.04;100849.28;4992106;28;20540;-70
2023/01/02 07:39:41;;;;;;;12.27;2.23;;;;;;;14.98;67.45;100850.25;4990293;28;21034;-69
2023/01/02 07:42:09;;;;;;;7.57;2.20;;;;;;;15.01;67.49;100848.81;4992295;28;20487;-70
2023/01/02 07:44:36;;;;;;;8.70;1.87;;;;;;;15.07;66.93;100847.50;4990659;28;20583;-69
2023/01/02 07:47:02;;;;;;;6.40;1.73;;;;;;;15.14;66.62;100847.81;4994118;28;20564;-70
2023/01/02 07:49:29;;;;;;;4.90;1.30;;;;;;;15.18;66.73;100856.94;4993010;28;20563;-70
2023/01/02 07:51:56;;;;;;;6.30;1.63;;;;;;;15.17;66.43;100860.00;4994493;28;20467;-69
2023/01/02 07:54:22;;;;;;;6.47;1.90;;;;;;;15.25;66.11;100859.97;4991784;28;20471;-70
2023/01/02 07:56:49;;;;;;;6.20;2.00;;;;;;;15.25;66.95;100868.16;4994196;28;20469;-69
2023/01/02 07:59:16;;;;;;;6.60;1.70;;;;;;;15.21;66.52;100871.88;4994411;28;20496;-70
2023/01/02 08:01:43;;;;;;;6.70;1.43;;;;;;;15.30;65.75;100867.19;4993625;28;20471;-69
2023/01/02 08:04:10;;;;;;;5.20;1.40;;;;;;;15.29;65.36;100866.38;4993408;28;20520;-69
2023/01/02 08:06:39;;;;;;;5.30;1.63;;;;;;;15.30;66.03;100878.91;4992166;28;20464;-69
2023/01/02 08:09:05;;;;;;;6.50;1.60;;;;;;;15.27;66.23;100863.19;4994289;28;20473;-69
2023/01/02 08:11:32;;;;;;;5.67;1.80;;;;;;;15.30;65.51;100864.44;4993079;28;20487;-69
2023/01/02 08:13:59;;;;;;;5.20;1.37;;;;;;;15.37;65.09;100856.56;4993008;28;20460;-70
2023/01/02 08:16:26;;;;;;;4.70;1.40;;;;;;;15.36;65.60;100861.22;4993618;28;20464;-69
2023/01/02 08:18:55;;;;;;;5.17;1.60;;;;;;;15.36;65.76;100853.03;4992861;28;20488;-70
2023/01/02 08:21:22;;;;;;;7.33;2.00;;;;;;;15.40;65.42;100855.91;4987990;28;20450;-69
2023/01/02 08:23:48;;;;;;;8.50;2.07;;;;;;;15.43;65.47;100855.25;4977442;28;20576;-69
2023/01/02 08:26:15;;;;;;;5.13;1.50;;;;;;;15.47;65.00;100866.31;4993163;28;20465;-69
2023/01/02 08:28:42;;;;;;;7.87;1.50;;;;;;;15.48;65.49;100867.91;4992986;28;20481;-69
2023/01/02 08:31:10;;;;;;;5.50;1.63;;;;;;;15.47;64.75;100863.59;4992014;28;20540;-69
2023/01/02 08:33:38;;;;;;;7.73;1.97;;;;;;;15.46;64.91;100873.72;4987447;28;20548;-69
2023/01/02 08:36:05;;;;;;;6.63;1.67;;;;;;;15.49;64.50;100864.84;4992126;28;20556;-69
2023/01/02 08:38:32;;;;;;;6.30;1.77;;;;;;;15.55;63.34;100865.50;4991436;28;20487;-69
2023/01/02 08:40:59;;;;;;;5.67;1.70;;;;;;;15.61;63.60;100866.91;4992014;28;20467;-69
2023/01/02 08:43:26;;;;;;;4.27;1.17;;;;;;;15.54;64.99;100861.97;4994628;28;20451;-69
2023/01/02 08:45:53;;;;;;;5.07;1.23;;;;;;;15.59;63.75;100863.72;4988929;28;20472;-69
2023/01/02 08:48:19;;;;;;;9.20;2.33;;;;;;;15.68;62.40;100869.97;4990052;28;20467;-70
2023/01/02 08:50:47;;;;;;;5.43;1.23;;;;;;;15.71;62.99;100873.97;4990524;28;21664;-69
2023/01/02 08:53:14;;;;;;;5.27;1.30;;;;;;;15.79;62.08;100884.03;4992188;28;20489;-69
2023/01/02 08:55:41;;;;;;;5.50;1.57;;;;;;;15.87;61.40;100880.47;4991342;28;20548;-69
2023/01/02 08:58:07;;;;;;;12.03;1.47;;;;;;;15.91;61.18;100875.16;4993531;28;20465;-69
2023/01/02 09:00:34;;;;;;;5.70;1.33;;;;;;;15.96;60.67;100877.69;5000284;28;20481;-69
2023/01/02 09:03:00;;;;;;;5.70;1.50;;;;;;;15.97;61.40;100880.09;4992489;28;20966;-69
2023/01/02 09:05:29;;;;;;;6.67;1.47;;;;;;;15.99;61.13;100879.78;4987905;28;20528;-69
2023/01/02 09:07:57;;;;;;;11.50;1.70;;;;;;;16.00;61.01;100873.97;4986166;28;20543;-69
2023/01/02 09:10:24;;;;;;;6.23;1.53;;;;;;;15.98;60.23;100886.34;4981208;28;20480;-69
2023/01/02 09:12:50;;;;;;;4.50;1.23;;;;;;;16.04;59.57;100877.66;4992087;28;20465;-70
2023/01/02 09:15:17;;;;;;;8.33;1.47;;;;;;;16.11;59.72;100875.22;4992005;28;20461;-69
2023/01/02 09:17:43;;;;;;;8.23;1.93;;;;;;;16.14;60.04;100881.94;4991255;28;20465;-69
2023/01/02 09:20:11;;;;;;;6.33;1.30;;;;;;;16.26;58.96;100887.47;4997762;28;20498;-69
2023/01/02 09:22:37;;;;;;;5.80;1.67;;;;;;;16.28;58.72;100885.19;4989590;28;20464;-69
2023/01/02 09:25:06;;;;;;;4.80;1.00;;;;;;;16.30;58.62;100887.63;4992840;28;20491;-68
2023/01/02 09:27:33;;;;;;;5.73;1.60;;;;;;;16.35;58.66;100890.16;4990429;28;20560;-69
2023/01/02 09:29:59;;;;;;;4.97;1.20;;;;;;;16.33;59.18;100884.22;4989431;28;20481;-69
2023/01/02 09:32:26;;;;;;;15.60;1.83;;;;;;;16.36;58.57;100889.03;4991263;28;20806;-69
2023/01/02 09:34:53;;;;;;;6.73;1.70;;;;;;;16.41;58.42;100891.56;4988305;28;20464;-69
2023/01/02 09:37:19;;;;;;;5.70;1.73;;;;;;;16.46;58.87;100885.09;4991934;28;20983;-69
2023/01/02 09:39:46;;;;;;;10.63;1.53;;;;;;;16.42;59.14;100876.75;4991837;28;20488;-68
2023/01/02 09:42:17;;;;;;;4.60;1.23;;;;;;;16.44;59.07;100873.69;4989643;28;20479;-69
2023/01/02 09:44:48;;;;;;;5.80;1.37;;;;;;;16.46;58.64;100872.22;4991076;28;20516;-69
2023/01/02 09:47:19;;;;;;;6.70;1.93;;;;;;;16.43;58.13;100872.91;4991292;28;20465;-69
2023/01/02 09:49:48;;;;;;;6.23;1.70;;;;;;;16.48;58.83;100860.97;4989133;28;20488;-69
2023/01/02 09:52:19;;;;;;;4.73;1.37;;;;;;;16.53;58.52;100863.47;4989721;28;20527;-70
2023/01/02 09:54:46;;;;;;;13.87;1.17;;;;;;;16.55;58.20;100864.72;4991567;28;20453;-69
2023/01/02 09:57:29;;;;;;;5.47;1.10;;;;;;;16.53;58.50;100863.47;4992851;28;20950;-69
2023/01/02 10:00:02;;;;;;;7.07;1.50;;;;;;;16.50;58.25;100864.16;4986866;28;20484;-69
2023/01/02 10:02:51;;;;;;;6.87;1.50;;;;;;;16.50;57.90;100861.41;4988431;28;20484;-72
2023/01/02 10:05:44;;;;;;;11.53;1.20;;;;;;;16.42;58.80;100856.81;4990980;28;20477;-74
2023/01/02 10:08:22;;;;;;;9.60;1.60;;;;;;;16.45;58.86;100848.75;4985300;28;20464;-72
2023/01/02 10:10:57;;;;;;;7.83;1.50;;;;;;;16.46;58.99;100853.06;4990159;28;20954;-71
2023/01/02 10:13:33;;;;;;;5.83;1.43;;;;;;;16.46;57.98;100857.75;4991647;28;20468;-71
2023/01/02 10:16:02;;;;;;;8.83;1.27;;;;;;;16.40;57.92;100844.28;4981979;28;20977;-70
2023/01/02 10:18:32;;;;;;;8.10;1.80;;;;;;;16.47;57.61;100841.03;4993733;28;20543;-70
2023/01/02 10:21:03;;;;;;;5.67;1.70;;;;;;;16.47;58.53;100849.22;4991797;28;20457;-70
2023/01/02 10:23:36;;;;;;;4.27;0.83;;;;;;;16.48;58.20;100839.06;4994813;28;20535;-71
2023/01/02 10:26:05;;;;;;;5.83;1.70;;;;;;;16.46;58.76;100841.34;4993008;28;20469;-71
2023/01/02 10:28:44;;;;;;;7.50;1.70;;;;;;;16.39;59.08;100837.22;4992608;28;21028;-71
2023/01/02 10:31:16;;;;;;;5.10;1.10;;;;;;;16.44;58.78;100838.16;4979296;28;20472;-71
2023/01/02 10:33:47;;;;;;;5.00;1.60;;;;;;;16.48;58.13;100826.19;4994826;28;20463;-71
2023/01/02 10:36:23;;;;;;;6.13;1.40;;;;;;;16.47;57.92;100837.47;4993842;28;20954;-71
2023/01/02 10:38:50;;;;;;;5.90;1.67;;;;;;;16.48;58.35;100839.06;4989340;28;20484;-71
2023/01/02 10:41:17;;;;;;;6.03;1.30;;;;;;;16.31;58.40;100829.88;4992988;28;20839;-71
2023/01/02 10:43:52;;;;;;;5.27;1.40;;;;;;;16.31;58.98;100823.59;4996006;28;20503;-71
2023/01/02 10:46:19;;;;;;;6.60;1.80;;;;;;;16.37;58.44;100828.53;4988449;28;21018;-71
2023/01/02 10:48:47;;;;;;;5.60;1.63;;;;;;;16.39;58.63;100829.00;4991100;28;20591;-71
2023/01/02 10:51:16;;;;;;;7.63;2.10;;;;;;;16.39;58.60;100829.00;4985904;28;20461;-71
2023/01/02 10:53:58;;;;;;;7.60;1.77;;;;;;;16.40;57.98;100841.53;4990174;28;20548;-71
2023/01/02 10:56:25;;;;;;;5.37;1.50;;;;;;;16.47;57.47;100838.28;4985347;28;20543;-70
2023/01/02 10:58:53;;;;;;;12.87;2.13;;;;;;;16.49;58.24;100830.53;4993469;28;20540;-69
2023/01/02 11:01:21;;;;;;;5.80;1.27;;;;;;;16.52;57.70;100829.88;4989842;28;20535;-70
2023/01/02 11:04:09;;;;;;;6.80;1.70;;;;;;;16.50;57.22;100829.38;4990160;28;20465;-69
2023/01/02 11:06:48;;;;;;;6.23;1.20;;;;;;;16.50;57.70;100828.59;4994466;28;20859;-69
2023/01/02 11:10:39;;;;;;;8.60;1.50;;;;;;;16.30;60.99;100824.75;5055144;28;20582;-68
2023/01/02 11:13:10;;;;;;;6.00;1.50;;;;;;;16.30;59.48;100831.00;5050017;28;20463;-68
2023/01/02 11:15:48;;;;;;;5.70;1.40;;;;;;;16.20;60.10;100830.59;5030421;28;20838;-68
2023/01/02 11:18:21;;;;;;;20.93;1.90;;;;;;;16.18;61.06;100813.75;5029963;28;20511;-68
2023/01/02 11:20:52;;;;;;;4.60;1.20;;;;;;;16.18;60.73;100825.47;5029448;28;20560;-68
2023/01/02 11:23:23;;;;;;;14.87;1.50;;;;;;;16.12;61.27;100822.16;5029747;28;20909;-68
2023/01/02 11:25:52;;;;;;;7.40;1.57;;;;;;;16.16;61.73;100827.75;5030481;28;20416;-68
2023/01/02 11:28:22;;;;;;;7.77;1.33;;;;;;;16.08;62.26;100834.06;5030364;28;20450;-68
2023/01/02 11:30:51;;;;;;;5.00;1.27;;;;;;;16.03;62.87;100824.13;5030085;28;20945;-68
2023/01/02 11:33:25;;;;;;;7.37;1.70;;;;;;;16.04;62.41;100833.94;5030304;28;20435;-68
2023/01/02 11:35:54;;;;;;;5.93;1.33;;;;;;;16.06;62.98;100833.59;5030384;28;20446;-68
2023/01/02 11:38:22;;;;;;;10.60;1.80;;;;;;;15.95;66.84;100829.66;5030167;28;20443;-68